createdAt,value
2023-04-30T00:00:25.117Z,4.40
2023-04-30T00:02:52.047Z,4.50
2023-04-30T00:05:18.944Z,4.50
2023-04-30T00:07:45.788Z,4.40
2023-04-30T00:10:12.707Z,4.40
2023-04-30T00:12:39.612Z,4.40
2023-04-30T00:15:07.016Z,4.40
2023-04-30T00:17:33.923Z,4.40
2023-04-30T00:20:00.802Z,4.40
2023-04-30T00:22:27.687Z,4.40
2023-04-30T00:24:54.542Z,4.40
2023-04-30T00:27:21.428Z,4.40
2023-04-30T00:29:48.284Z,4.40
2023-04-30T00:32:15.384Z,4.30
2023-04-30T00:34:42.413Z,4.30
2023-04-30T00:37:09.311Z,4.20
2023-04-30T00:39:36.227Z,4.20
2023-04-30T00:42:03.154Z,4.10
2023-04-30T00:44:30.027Z,3.90
2023-04-30T00:46:56.889Z,3.90
2023-04-30T00:49:23.882Z,4.00
2023-04-30T00:51:52.332Z,3.90
2023-04-30T00:54:20.963Z,3.90
2023-04-30T00:56:47.872Z,3.80
2023-04-30T00:59:14.934Z,3.80
2023-04-30T01:01:42.219Z,3.60
2023-04-30T01:04:09.217Z,3.60
2023-04-30T01:06:36.247Z,3.50
2023-04-30T01:09:03.230Z,3.40
2023-04-30T01:11:45.205Z,3.40
2023-04-30T01:14:50.381Z,3.40
2023-04-30T01:17:34.053Z,3.30
2023-04-30T01:20:02.175Z,3.30
2023-04-30T01:22:29.037Z,3.30
2023-04-30T01:25:21.537Z,3.20
2023-04-30T01:28:06.192Z,3.20
2023-04-30T01:30:34.060Z,3.20
2023-04-30T01:33:01.697Z,3.20
2023-04-30T01:35:46.490Z,3.10
2023-04-30T01:38:23.131Z,3.00
2023-04-30T01:41:25.274Z,3.10
2023-04-30T01:44:06.960Z,3.10
2023-04-30T01:46:33.844Z,3.10
2023-04-30T01:49:21.746Z,3.10
2023-04-30T01:51:51.449Z,3.10
2023-04-30T01:54:41.487Z,3.20
2023-04-30T01:57:16.432Z,3.10
2023-04-30T01:59:44.581Z,3.20
2023-04-30T02:02:11.404Z,3.20
2023-04-30T02:04:38.290Z,3.10
2023-04-30T02:07:05.129Z,3.10
2023-04-30T02:09:31.982Z,3.10
2023-04-30T02:11:58.841Z,3.00
2023-04-30T02:14:25.786Z,2.90
2023-04-30T02:16:52.623Z,3.00
2023-04-30T02:19:19.444Z,2.90
2023-04-30T02:21:46.364Z,2.90
2023-04-30T02:24:13.231Z,2.90
2023-04-30T02:26:40.079Z,2.70
2023-04-30T02:29:06.912Z,2.70
2023-04-30T02:31:33.854Z,2.60
2023-04-30T02:34:00.709Z,2.60
2023-04-30T02:36:27.561Z,2.50
2023-04-30T02:38:54.444Z,2.50
2023-04-30T02:41:21.308Z,2.50
2023-04-30T02:43:48.203Z,2.40
2023-04-30T02:46:15.134Z,2.30
2023-04-30T02:48:42.039Z,2.30
2023-04-30T02:51:08.893Z,2.20
2023-04-30T02:53:35.785Z,2.10
2023-04-30T02:56:02.639Z,2.20
2023-04-30T02:58:29.536Z,2.10
2023-04-30T03:00:56.463Z,2.00
2023-04-30T03:03:23.543Z,2.00
2023-04-30T03:05:50.525Z,1.90
2023-04-30T03:08:17.384Z,1.90
2023-04-30T03:10:44.217Z,1.80
2023-04-30T03:13:11.110Z,1.80
2023-04-30T03:15:37.951Z,1.70
2023-04-30T03:18:04.817Z,1.80
2023-04-30T03:20:31.751Z,1.80
2023-04-30T03:22:58.606Z,1.70
2023-04-30T03:25:25.514Z,1.60
2023-04-30T03:27:52.408Z,1.50
2023-04-30T03:30:19.457Z,1.50
2023-04-30T03:32:46.344Z,1.50
2023-04-30T03:35:13.220Z,1.40
2023-04-30T03:37:40.110Z,1.40
2023-04-30T03:40:07.840Z,1.30
2023-04-30T03:42:34.728Z,1.30
2023-04-30T03:45:01.565Z,1.20
2023-04-30T03:47:28.523Z,1.30
2023-04-30T03:49:56.053Z,1.20
2023-04-30T03:52:23.321Z,1.20
2023-04-30T03:54:50.261Z,1.20
2023-04-30T03:57:17.278Z,1.10
2023-04-30T03:59:44.216Z,1.10
2023-04-30T04:02:11.147Z,1.20
2023-04-30T04:04:38.115Z,1.20
2023-04-30T04:07:04.998Z,1.20
2023-04-30T04:09:31.849Z,1.10
2023-04-30T04:11:58.766Z,1.10
2023-04-30T04:14:25.617Z,1.10
2023-04-30T04:16:52.576Z,1.20
2023-04-30T04:19:19.510Z,1.20
2023-04-30T04:21:46.357Z,1.10
2023-04-30T04:24:13.247Z,1.10
2023-04-30T04:26:40.298Z,1.20
2023-04-30T04:29:07.496Z,1.10
2023-04-30T04:31:34.474Z,1.30
2023-04-30T04:34:04.552Z,1.30
2023-04-30T04:36:32.204Z,1.30
2023-04-30T04:38:59.096Z,1.60
2023-04-30T04:41:25.941Z,1.60
2023-04-30T04:43:52.805Z,1.70
2023-04-30T04:46:19.802Z,1.70
2023-04-30T04:48:47.041Z,1.70
2023-04-30T04:51:13.889Z,1.80
2023-04-30T04:53:40.806Z,1.90
2023-04-30T04:56:07.853Z,2.00
2023-04-30T04:58:35.067Z,2.00
2023-04-30T05:01:01.961Z,2.10
2023-04-30T05:03:29.629Z,2.30
2023-04-30T05:05:56.642Z,2.40
2023-04-30T05:08:23.604Z,2.50
2023-04-30T05:10:50.456Z,2.60
2023-04-30T05:13:17.327Z,2.70
2023-04-30T05:15:44.207Z,2.80
2023-04-30T05:18:11.102Z,2.90
2023-04-30T05:20:38.002Z,3.00
2023-04-30T05:23:04.861Z,3.30
2023-04-30T05:25:31.733Z,3.40
2023-04-30T05:27:58.675Z,3.50
2023-04-30T05:30:25.559Z,3.50
2023-04-30T05:32:52.647Z,3.70
2023-04-30T05:35:19.735Z,3.80
2023-04-30T05:37:46.736Z,3.90
2023-04-30T05:40:14.594Z,4.10
2023-04-30T05:42:42.218Z,4.30
2023-04-30T05:45:09.893Z,4.40
2023-04-30T05:47:36.806Z,4.60
2023-04-30T05:50:03.915Z,4.80
2023-04-30T05:52:30.789Z,4.90
2023-04-30T05:54:57.666Z,4.90
2023-04-30T05:57:24.521Z,5.00
2023-04-30T05:59:51.372Z,5.10
2023-04-30T06:02:18.300Z,5.20
2023-04-30T06:04:45.289Z,5.20
2023-04-30T06:07:12.166Z,5.20
2023-04-30T06:09:39.102Z,5.30
2023-04-30T06:12:06.099Z,5.30
2023-04-30T06:14:33.053Z,5.40
2023-04-30T06:16:59.955Z,5.50
2023-04-30T06:19:26.833Z,5.70
2023-04-30T06:21:53.735Z,5.70
2023-04-30T06:24:20.580Z,5.80
2023-04-30T06:26:47.457Z,5.90
2023-04-30T06:29:14.298Z,6.00
2023-04-30T06:31:41.153Z,6.20
2023-04-30T06:34:08.111Z,6.30
2023-04-30T06:36:34.938Z,6.40
2023-04-30T06:39:01.801Z,6.50
2023-04-30T06:41:28.683Z,6.60
2023-04-30T06:43:55.561Z,6.70
2023-04-30T06:46:22.488Z,6.80
2023-04-30T06:48:49.382Z,6.90
2023-04-30T06:51:16.238Z,7.00
2023-04-30T06:53:43.113Z,7.00
2023-04-30T06:56:09.985Z,7.10
2023-04-30T06:58:36.812Z,7.20
2023-04-30T07:01:03.718Z,7.30
2023-04-30T07:03:30.696Z,7.30
2023-04-30T07:05:57.716Z,7.50
2023-04-30T07:08:24.573Z,7.50
2023-04-30T07:10:51.426Z,7.50
2023-04-30T07:13:18.317Z,7.40
2023-04-30T07:15:45.386Z,7.50
2023-04-30T07:18:12.309Z,7.60
2023-04-30T07:20:39.212Z,7.80
2023-04-30T07:23:06.076Z,7.90
2023-04-30T07:25:32.933Z,8.10
2023-04-30T07:27:59.805Z,8.40
2023-04-30T07:30:26.702Z,8.40
2023-04-30T07:32:53.612Z,8.40
2023-04-30T07:35:20.554Z,8.50
2023-04-30T07:37:47.408Z,8.60
2023-04-30T07:40:22.010Z,8.70
2023-04-30T07:42:55.702Z,8.70
2023-04-30T07:45:22.576Z,8.90
2023-04-30T07:47:49.469Z,9.00
2023-04-30T07:50:16.384Z,9.10
2023-04-30T07:55:29.468Z,9.50
2023-04-30T07:57:56.365Z,9.80
2023-04-30T08:00:23.336Z,10.00
2023-04-30T08:02:50.396Z,9.90
2023-04-30T08:05:17.627Z,10.10
2023-04-30T08:07:44.488Z,10.30
2023-04-30T08:10:11.427Z,10.50
2023-04-30T08:12:47.379Z,10.60
2023-04-30T08:15:14.326Z,10.70
2023-04-30T08:17:41.232Z,10.40
2023-04-30T08:20:08.554Z,10.20
2023-04-30T08:22:35.407Z,9.80
2023-04-30T08:25:02.323Z,9.90
2023-04-30T08:27:31.602Z,10.20
2023-04-30T08:29:58.659Z,10.50
2023-04-30T08:32:25.666Z,11.00
2023-04-30T08:34:53.429Z,11.30
2023-04-30T08:37:20.453Z,10.80
2023-04-30T08:39:47.378Z,11.20
2023-04-30T08:42:15.392Z,11.60
2023-04-30T08:44:42.714Z,13.20
2023-04-30T08:47:11.578Z,15.50
2023-04-30T08:49:38.996Z,16.50
2023-04-30T08:52:05.902Z,15.10
2023-04-30T08:54:35.588Z,14.70
2023-04-30T08:57:02.526Z,14.30
2023-04-30T08:59:29.477Z,15.20
2023-04-30T09:01:56.547Z,17.10
2023-04-30T09:04:23.587Z,17.40
2023-04-30T09:06:53.402Z,18.20
2023-04-30T09:09:20.259Z,19.00
2023-04-30T09:11:47.116Z,18.80
2023-04-30T09:14:14.002Z,17.60
2023-04-30T09:16:49.279Z,18.50
2023-04-30T09:19:23.670Z,18.80
2023-04-30T09:21:50.596Z,18.70
2023-04-30T09:24:18.732Z,17.80
2023-04-30T09:26:46.375Z,16.90
2023-04-30T09:29:14.045Z,17.10
2023-04-30T09:31:46.797Z,16.10
2023-04-30T09:34:14.753Z,16.20
2023-04-30T09:36:54.735Z,16.70
2023-04-30T09:39:21.809Z,16.80
2023-04-30T09:41:50.359Z,16.50
2023-04-30T09:44:28.118Z,16.80
2023-04-30T09:46:59.355Z,16.90
2023-04-30T09:49:26.962Z,16.70
2023-04-30T09:51:55.376Z,16.50
2023-04-30T09:54:32.601Z,16.00
2023-04-30T09:57:01.352Z,15.70
2023-04-30T09:59:33.207Z,16.00
2023-04-30T10:02:02.097Z,16.00
2023-04-30T10:04:37.803Z,16.50
2023-04-30T10:07:09.104Z,16.80
2023-04-30T10:09:54.219Z,17.20
2023-04-30T10:12:26.140Z,17.80
2023-04-30T10:14:57.794Z,18.20
2023-04-30T10:17:28.054Z,17.80
2023-04-30T10:20:01.914Z,17.40
2023-04-30T10:22:29.992Z,17.60
2023-04-30T10:24:57.314Z,18.20
2023-04-30T10:27:24.322Z,18.00
2023-04-30T10:29:51.563Z,18.00
2023-04-30T10:32:19.900Z,18.90
2023-04-30T10:34:59.368Z,18.80
2023-04-30T10:37:43.421Z,18.60
2023-04-30T10:40:10.691Z,18.80
2023-04-30T10:42:37.760Z,19.00
2023-04-30T10:45:04.860Z,18.90
2023-04-30T10:47:31.950Z,19.30
2023-04-30T10:50:08.467Z,20.00
2023-04-30T10:52:38.107Z,19.50
2023-04-30T10:55:06.798Z,19.40
2023-04-30T10:57:44.223Z,19.30
2023-04-30T11:00:11.040Z,19.40
2023-04-30T11:02:44.636Z,20.10
2023-04-30T11:05:16.142Z,19.90
2023-04-30T11:07:57.682Z,19.80
2023-04-30T11:10:26.428Z,19.80
2023-04-30T11:12:55.392Z,19.70
2023-04-30T11:15:26.720Z,20.00
2023-04-30T11:17:58.193Z,20.10
2023-04-30T11:20:26.089Z,20.70
2023-04-30T11:23:08.909Z,20.10
2023-04-30T11:25:43.895Z,20.60
2023-04-30T11:28:24.779Z,20.70
2023-04-30T11:30:59.521Z,21.00
2023-04-30T11:33:28.185Z,20.90
2023-04-30T11:36:00.353Z,21.40
2023-04-30T11:38:29.931Z,21.30
2023-04-30T11:40:58.043Z,20.90
2023-04-30T11:43:26.649Z,21.30
2023-04-30T11:46:16.045Z,20.90
2023-04-30T11:48:45.495Z,20.40
2023-04-30T11:51:23.692Z,20.50
2023-04-30T11:53:52.376Z,20.70
2023-04-30T11:56:20.281Z,21.10
2023-04-30T11:58:47.975Z,21.90
2023-04-30T12:01:15.666Z,20.90
2023-04-30T12:03:47.156Z,20.60
2023-04-30T12:06:27.995Z,21.40
2023-04-30T12:08:56.263Z,21.20
2023-04-30T12:11:28.501Z,21.00
2023-04-30T12:14:16.409Z,21.10
2023-04-30T12:16:48.683Z,21.60
2023-04-30T12:19:19.894Z,21.90
2023-04-30T12:21:47.692Z,21.80
2023-04-30T12:24:16.368Z,21.60
2023-04-30T12:26:43.776Z,21.60
2023-04-30T12:29:20.309Z,21.60
2023-04-30T12:31:50.062Z,21.30
2023-04-30T12:34:16.916Z,21.10
2023-04-30T12:36:43.825Z,21.30
2023-04-30T12:39:13.427Z,21.50
2023-04-30T12:41:45.396Z,21.30
2023-04-30T12:44:23.926Z,21.70
2023-04-30T12:46:53.026Z,21.20
2023-04-30T12:49:30.760Z,21.30
2023-04-30T12:52:05.473Z,20.80
2023-04-30T12:54:32.796Z,21.00
2023-04-30T12:57:04.636Z,21.20
2023-04-30T12:59:33.560Z,21.00
2023-04-30T13:02:28.218Z,21.50
2023-04-30T13:04:55.354Z,20.90
2023-04-30T13:07:22.400Z,21.20
2023-04-30T13:09:49.259Z,21.30
2023-04-30T13:12:16.116Z,21.20
2023-04-30T13:14:43.011Z,20.90
2023-04-30T13:17:09.923Z,20.60
2023-04-30T13:19:36.884Z,20.30
2023-04-30T13:22:03.778Z,20.10
2023-04-30T13:24:30.716Z,20.60
2023-04-30T13:26:57.591Z,20.30
2023-04-30T13:29:25.167Z,20.50
2023-04-30T13:31:52.073Z,20.20
2023-04-30T13:34:18.968Z,20.20
2023-04-30T13:36:45.847Z,20.30
2023-04-30T13:39:12.740Z,20.60
2023-04-30T13:41:39.603Z,20.60
2023-04-30T13:44:06.536Z,20.60
2023-04-30T13:46:33.464Z,20.60
2023-04-30T13:49:00.426Z,20.50
2023-04-30T13:51:27.277Z,20.70
2023-04-30T13:53:54.187Z,20.50
2023-04-30T13:56:21.102Z,20.00
2023-04-30T13:58:47.966Z,20.50
2023-04-30T14:01:14.909Z,21.20
2023-04-30T14:03:41.895Z,21.40
2023-04-30T14:06:08.963Z,21.60
2023-04-30T14:08:35.899Z,21.40
2023-04-30T14:11:02.745Z,21.60
2023-04-30T14:13:29.607Z,21.90
2023-04-30T14:15:56.521Z,21.30
2023-04-30T14:18:23.565Z,20.80
2023-04-30T14:20:50.441Z,21.30
2023-04-30T14:23:17.312Z,21.70
2023-04-30T14:25:44.209Z,21.80
2023-04-30T14:28:11.152Z,21.90
2023-04-30T14:30:38.094Z,22.20
2023-04-30T14:33:05.029Z,22.80
2023-04-30T14:35:32.598Z,22.80
2023-04-30T14:37:59.468Z,23.10
2023-04-30T14:40:26.376Z,22.80
2023-04-30T14:42:53.250Z,22.40
2023-04-30T14:45:20.191Z,22.80
2023-04-30T14:47:47.148Z,23.10
2023-04-30T14:50:14.035Z,23.50
2023-04-30T14:52:40.917Z,23.60
2023-04-30T14:55:08.216Z,23.50
2023-04-30T14:57:35.100Z,23.70
2023-04-30T15:00:02.323Z,23.70
2023-04-30T15:02:29.336Z,23.40
2023-04-30T15:04:56.240Z,23.30
2023-04-30T15:07:23.122Z,23.20
2023-04-30T15:09:50.050Z,23.20
2023-04-30T15:12:16.871Z,23.40
2023-04-30T15:14:43.710Z,23.50
2023-04-30T15:17:10.645Z,23.10
2023-04-30T15:19:37.502Z,23.70
2023-04-30T15:22:04.441Z,23.50
2023-04-30T15:24:31.325Z,23.70
2023-04-30T15:26:58.367Z,23.90
2023-04-30T15:29:25.328Z,23.70
2023-04-30T15:31:52.254Z,23.40
2023-04-30T15:34:19.758Z,23.40
2023-04-30T15:36:46.734Z,23.50
2023-04-30T15:39:13.809Z,23.50
2023-04-30T15:41:40.692Z,23.70
2023-04-30T15:44:07.571Z,23.40
2023-04-30T15:46:34.528Z,23.00
2023-04-30T15:49:01.454Z,23.10
2023-04-30T15:51:28.319Z,23.30
2023-04-30T15:53:55.610Z,22.90
2023-04-30T15:56:22.486Z,23.00
2023-04-30T15:58:49.345Z,23.40
2023-04-30T16:01:16.224Z,23.20
2023-04-30T16:03:43.321Z,23.10
2023-04-30T16:06:10.285Z,23.10
2023-04-30T16:08:37.404Z,23.20
2023-04-30T16:11:04.342Z,22.70
2023-04-30T16:13:31.171Z,22.80
2023-04-30T16:15:58.054Z,22.60
2023-04-30T16:18:24.998Z,22.40
2023-04-30T16:20:51.987Z,22.40
2023-04-30T16:23:18.871Z,21.90
2023-04-30T16:25:45.743Z,22.00
2023-04-30T16:28:12.652Z,21.80
2023-04-30T16:30:39.610Z,22.00
2023-04-30T16:33:06.523Z,22.30
2023-04-30T16:35:33.444Z,22.20
2023-04-30T16:38:00.279Z,22.20
2023-04-30T16:40:27.139Z,22.10
2023-04-30T16:42:54.034Z,22.00
2023-04-30T16:45:20.953Z,22.00
2023-04-30T16:47:47.868Z,22.00
2023-04-30T16:50:14.719Z,22.00
2023-04-30T16:52:41.595Z,21.70
2023-04-30T16:55:08.912Z,21.70
2023-04-30T16:57:35.964Z,21.80
2023-04-30T17:00:03.510Z,21.70
2023-04-30T17:02:30.433Z,21.70
2023-04-30T17:04:57.390Z,21.80
2023-04-30T17:07:24.243Z,21.80
2023-04-30T17:09:52.548Z,21.70
2023-04-30T17:12:19.515Z,21.60
2023-04-30T17:14:46.388Z,21.60
2023-04-30T17:17:13.241Z,21.80
2023-04-30T17:19:40.091Z,21.70
2023-04-30T17:22:06.989Z,21.50
2023-04-30T17:24:33.835Z,21.70
2023-04-30T17:27:00.758Z,21.40
2023-04-30T17:29:27.729Z,21.10
2023-04-30T17:31:54.736Z,20.90
2023-04-30T17:34:21.665Z,20.30
2023-04-30T17:36:48.511Z,19.40
2023-04-30T17:39:15.443Z,19.00
2023-04-30T17:41:42.560Z,18.70
2023-04-30T17:44:09.437Z,18.10
2023-04-30T17:46:36.403Z,17.30
2023-04-30T17:49:03.279Z,16.80
2023-04-30T17:51:30.271Z,16.80
2023-04-30T17:53:57.730Z,16.20
2023-04-30T17:56:24.662Z,15.80
2023-04-30T17:58:51.702Z,15.50
2023-04-30T18:01:18.573Z,15.20
2023-04-30T18:03:45.534Z,15.00
2023-04-30T18:06:12.480Z,14.80
2023-04-30T18:08:39.409Z,14.50
2023-04-30T18:11:06.925Z,14.30
2023-04-30T18:13:33.845Z,14.10
2023-04-30T18:16:00.945Z,14.00
2023-04-30T18:18:27.835Z,13.70
2023-04-30T18:20:55.879Z,13.40
2023-04-30T18:23:22.868Z,13.10
2023-04-30T18:25:49.914Z,12.90
2023-04-30T18:28:16.808Z,12.70
2023-04-30T18:30:43.720Z,12.60
2023-04-30T18:33:10.695Z,12.50
2023-04-30T18:35:37.653Z,12.30
2023-04-30T18:38:04.581Z,12.10
2023-04-30T18:40:31.426Z,12.00
2023-04-30T18:42:58.322Z,11.80
2023-04-30T18:45:25.308Z,11.70
2023-04-30T18:47:52.238Z,11.40
2023-04-30T18:50:19.181Z,11.30
2023-04-30T18:52:46.153Z,11.30
2023-04-30T18:55:13.056Z,11.10
2023-04-30T18:57:42.114Z,11.10
2023-04-30T19:00:10.488Z,11.00
2023-04-30T19:02:37.388Z,10.80
2023-04-30T19:05:04.639Z,10.70
2023-04-30T19:07:31.492Z,10.60
2023-04-30T19:09:59.043Z,10.50
2023-04-30T19:12:26.017Z,10.40
2023-04-30T19:14:52.893Z,10.30
2023-04-30T19:17:21.435Z,10.20
2023-04-30T19:19:48.799Z,10.10
2023-04-30T19:22:15.725Z,10.10
2023-04-30T19:24:42.579Z,9.90
2023-04-30T19:27:09.646Z,9.90
2023-04-30T19:29:36.528Z,9.80
2023-04-30T19:32:03.550Z,9.70
2023-04-30T19:34:30.612Z,9.60
2023-04-30T19:36:57.499Z,9.50
2023-04-30T19:39:32.061Z,9.40
2023-04-30T19:41:58.999Z,9.30
2023-04-30T19:44:26.025Z,9.20
2023-04-30T19:46:52.933Z,9.10
2023-04-30T19:49:19.779Z,9.10
2023-04-30T19:51:46.636Z,9.10
2023-04-30T19:54:13.537Z,9.00
2023-04-30T19:56:43.669Z,9.00
2023-04-30T19:59:10.535Z,9.00
2023-04-30T20:01:37.491Z,9.00
2023-04-30T20:04:04.822Z,8.90
2023-04-30T20:06:31.803Z,8.80
2023-04-30T20:08:59.371Z,8.80
2023-04-30T20:11:26.284Z,8.70
2023-04-30T20:13:55.057Z,8.60
2023-04-30T20:16:21.989Z,8.60
2023-04-30T20:18:48.942Z,8.50
2023-04-30T20:21:16.273Z,8.60
2023-04-30T20:23:43.634Z,8.50
2023-04-30T20:26:10.494Z,8.40
2023-04-30T20:28:37.499Z,8.40
2023-04-30T20:31:04.390Z,8.40
2023-04-30T20:33:31.299Z,8.30
2023-04-30T20:36:00.166Z,8.30
2023-04-30T20:38:27.005Z,8.30
2023-04-30T20:40:53.845Z,8.30
2023-04-30T20:43:20.686Z,8.30
2023-04-30T20:45:47.568Z,8.10
2023-04-30T20:48:14.588Z,8.10
2023-04-30T20:50:41.498Z,8.10
2023-04-30T20:53:10.828Z,8.10
2023-04-30T20:55:38.300Z,8.00
2023-04-30T20:58:05.186Z,7.90
2023-04-30T21:00:32.094Z,7.80
2023-04-30T21:02:59.166Z,7.80
2023-04-30T21:05:26.332Z,7.70
2023-04-30T21:07:53.204Z,7.60
2023-04-30T21:10:20.183Z,7.60
2023-04-30T21:12:47.002Z,7.60
2023-04-30T21:15:13.925Z,7.50
2023-04-30T21:17:40.828Z,7.50
2023-04-30T21:20:08.520Z,7.50
2023-04-30T21:22:35.376Z,7.40
2023-04-30T21:25:02.354Z,7.40
2023-04-30T21:27:29.234Z,7.40
2023-04-30T21:29:56.376Z,7.30
2023-04-30T21:32:23.528Z,7.20
2023-04-30T21:34:50.418Z,7.10
2023-04-30T21:37:17.539Z,7.10
2023-04-30T21:39:44.472Z,7.00
2023-04-30T21:42:11.358Z,7.00
2023-04-30T21:44:38.247Z,6.90
2023-04-30T21:47:05.077Z,6.90
2023-04-30T21:49:31.975Z,6.80
2023-04-30T21:51:58.882Z,6.90
2023-04-30T21:54:25.745Z,6.90
2023-04-30T21:56:52.778Z,6.90
2023-04-30T21:59:19.674Z,6.80
2023-04-30T22:01:46.717Z,6.80
2023-04-30T22:04:13.727Z,6.80
2023-04-30T22:06:40.673Z,6.80
2023-04-30T22:09:07.592Z,6.80
2023-04-30T22:11:35.135Z,6.90
2023-04-30T22:14:02.046Z,6.90
2023-04-30T22:16:29.110Z,6.90
2023-04-30T22:18:58.132Z,6.80
2023-04-30T22:21:25.998Z,6.80
2023-04-30T22:23:52.887Z,6.80
2023-04-30T22:26:19.793Z,6.80
2023-04-30T22:28:46.788Z,6.70
2023-04-30T22:31:13.713Z,6.70
2023-04-30T22:33:40.648Z,6.70
2023-04-30T22:36:08.871Z,6.70
2023-04-30T22:38:35.827Z,6.60
2023-04-30T22:41:03.361Z,6.60
2023-04-30T22:43:30.977Z,6.60
2023-04-30T22:45:59.350Z,6.60
2023-04-30T22:48:27.336Z,6.60
2023-04-30T22:50:54.334Z,6.60
2023-04-30T22:53:21.287Z,6.60
2023-04-30T22:55:48.260Z,6.60
2023-04-30T22:58:15.205Z,6.50
2023-04-30T23:00:42.117Z,6.50
2023-04-30T23:03:08.998Z,6.50
2023-04-30T23:05:35.970Z,6.40
2023-04-30T23:08:03.017Z,6.50
2023-04-30T23:10:30.176Z,6.50
2023-04-30T23:12:57.046Z,6.40
2023-04-30T23:15:23.923Z,6.40
2023-04-30T23:17:50.829Z,6.40
2023-04-30T23:20:17.987Z,6.40
2023-04-30T23:22:44.803Z,6.30
2023-04-30T23:25:11.650Z,6.30
2023-04-30T23:27:38.530Z,6.30
2023-04-30T23:30:06.184Z,6.30
2023-04-30T23:32:33.112Z,6.20
2023-04-30T23:35:00.246Z,6.20
2023-04-30T23:37:27.086Z,6.10
2023-04-30T23:39:54.106Z,6.10
2023-04-30T23:42:21.212Z,6.10
2023-04-30T23:44:48.125Z,6.10
2023-04-30T23:47:15.059Z,6.10
2023-04-30T23:49:44.029Z,6.10
2023-04-30T23:52:12.693Z,6.10
2023-04-30T23:54:39.574Z,6.10
2023-04-30T23:57:06.442Z,6.00
2023-04-30T23:59:33.340Z,6.00
